Terminal Aerodrome Forecast
Issued by NWS

Home | Current Version | Previous Version | Text Only | Print | Product List | Glossary On
Versions: 1 2 3 4 5 6 7 8 9 10 11 12 13 14 15 16 17 18
000
FTUS45 KTFX 302334
TAFLWT
TAF
KLWT 302334Z 3100/3124 VRB05KT P6SM VCSH FEW008 SCT070 BKN100
      TEMPO 3100/3103 -SHRA BKN050
     FM310300 VRB04KT P6SM SCT060 BKN100
      TEMPO 3103/3106 -SHRA BKN040
     FM311100 13006KT P6SM SCT070 BKN150
      TEMPO 3111/3114 3SM BR SCT010
     FM312000 09008KT P6SM VCSH SCT060 BKN100=

USA.gov is the U.S. government's official web portal to all federal, state and local government web resources and services.